Omak, Washington
Current Conditions -  °F | °C
As of 7:53 AM on Saturday 25 Oct 2014 (Local Time) from KOMK Reporting Station
Clear Clear  
Wind Chill: 39°   Ceiling: Unl
Heat Index: 43°   Visibility: 10mi
Dew Point: 41°   Wind: 6mph
Humidity: 93%   Direction: 350°N
Pressure: 29.71"   Gusts: NA
Location:  48.41°N, 119.53°W
Report Text: KOMK 251453Z AUTO 35005KT 10SM CLR 06/05 A2971 RMK AO2 SLP065 T00610050 58033
Loading
Personal Weather Stations






























Interactive Weather Map
Tropical Storm Tracking
New forecast layout! Learn more

10-Day Weather Forecast

Advertisements
Track Severe Weather on mobile